»·PEaware :: WAT2019 KBOI-KDEN

WAT2019 :: KBOI-KDEN

FLIGHT INFORMATION

Flight Status: Arrived
Operator:
Walker Air Transport
More flights by this operator :: More flights under this callsign
Pilot: Bogdan R. (37247)
Aircraft: BOEING 737-800
(B738)
More flights by this aircraft type
Origin: KBOI Boise Air Terminal/Gowen
United States
Destination: KDEN Denver Intl
United States
More flights between these airports :: More routes between these airports
Route: BOI3 BOI ROARR PIH MJANE FLATI3
File this flight plan on PilotEdge
Remarks: RMK / SIMBRIEF
Altitude:
(Current/Filed)
39,000ft
Speed:
(Current/Filed)
445kts
Departed: 23-Sep-22 06:00 PM
Arrived: 23-Sep-22 07:24 PM
Distance/Time
Traveled:
562nm/1:24
Distance/Time
To Go:
Arrived

Flight Plot

Page will automatically refresh every two minutes.

Flight plan parsing failed; only flown route is shown


Map Options




Map Legend


Flown Route
Filed Route
Departure Airport
Arrival Airport
Navaid (VOR, NDB)
Fix

Horizontal Profiles

Position Reports

Time Latitude Longitude Heading Altitude Ground
Speed
23-Sep-22 17:14 43.567233 -116.220770 25 2880ft 0kts
23-Sep-22 17:15 43.567233 -116.220770 25 2880ft 0kts
23-Sep-22 17:16 43.567233 -116.220770 25 2880ft 0kts
23-Sep-22 17:17 43.567233 -116.220770 25 2880ft 0kts
23-Sep-22 17:18 43.567233 -116.220770 25 2880ft 0kts
23-Sep-22 17:19 43.567233 -116.220770 25 2880ft 0kts
23-Sep-22 17:20 43.567233 -116.220770 25 2880ft 0kts
23-Sep-22 17:21 43.567233 -116.220770 25 2880ft 0kts
23-Sep-22 17:22 43.567233 -116.220770 25 2880ft 0kts
23-Sep-22 17:23 43.567233 -116.220770 25 2880ft 0kts
23-Sep-22 17:24 43.567233 -116.220770 25 2880ft 0kts
23-Sep-22 17:25 43.567233 -116.220770 25 2880ft 0kts
23-Sep-22 17:26 43.567233 -116.220770 25 2880ft 0kts
23-Sep-22 17:27 43.567233 -116.220770 25 2880ft 0kts
23-Sep-22 17:28 43.567233 -116.220770 25 2880ft 0kts
23-Sep-22 17:29 43.567233 -116.220770 25 2880ft 0kts
23-Sep-22 17:30 43.567233 -116.220770 25 2880ft 0kts
23-Sep-22 17:31 43.567233 -116.220770 25 2880ft 0kts
23-Sep-22 17:32 43.567233 -116.220770 25 2880ft 0kts
23-Sep-22 17:33 43.567233 -116.220770 25 2880ft 0kts
23-Sep-22 17:34 43.567233 -116.220770 25 2880ft 0kts
23-Sep-22 17:35 43.567233 -116.220770 25 2880ft 0kts
23-Sep-22 17:36 43.567233 -116.220770 25 2880ft 0kts
23-Sep-22 17:37 43.567233 -116.220770 25 2880ft 0kts
23-Sep-22 17:38 43.567233 -116.220770 25 2880ft 0kts
23-Sep-22 17:39 43.567233 -116.220770 25 2880ft 0kts
23-Sep-22 17:40 43.567233 -116.220770 25 2880ft 0kts
23-Sep-22 17:41 43.567233 -116.220770 25 2880ft 0kts
23-Sep-22 17:42 43.567233 -116.220770 25 2880ft 0kts
23-Sep-22 17:43 43.567233 -116.220770 25 2880ft 0kts
23-Sep-22 17:44 43.566913 -116.220975 25 2880ft 2kts
23-Sep-22 17:45 43.566621 -116.221163 24 2880ft 0kts
23-Sep-22 17:46 43.566621 -116.221163 24 2880ft 0kts
23-Sep-22 17:47 43.566621 -116.221163 24 2880ft 0kts
23-Sep-22 17:48 43.566621 -116.221163 24 2880ft 0kts
23-Sep-22 17:49 43.566621 -116.221163 24 2880ft 0kts
23-Sep-22 17:50 43.566621 -116.221163 24 2880ft 0kts
23-Sep-22 17:51 43.566849 -116.221375 258 2880ft 2kts
23-Sep-22 17:52 43.565773 -116.220338 113 2880ft 8kts
23-Sep-22 17:53 43.563564 -116.213816 115 2880ft 21kts
23-Sep-22 17:54 43.561156 -116.206779 113 2880ft 19kts
23-Sep-22 17:55 43.559604 -116.202570 150 2880ft 0kts
23-Sep-22 17:56 43.559604 -116.202570 150 2880ft 0kts
23-Sep-22 17:57 43.559604 -116.202570 150 2880ft 0kts
23-Sep-22 17:58 43.558806 -116.203469 289 2881ft 0kts
23-Sep-22 17:59 43.567522 -116.230667 289 3482ft 191kts
23-Sep-22 18:00 43.587076 -116.295101 293 8038ft 180kts
23-Sep-22 18:01 43.626708 -116.310436 48 10993ft 226kts
23-Sep-22 18:02 43.615681 -116.209627 120 12084ft 344kts
23-Sep-22 18:03 43.566965 -116.090091 118 15192ft 370kts
23-Sep-22 18:04 43.517720 -115.960657 118 18178ft 393kts
23-Sep-22 18:05 43.466483 -115.825390 117 21099ft 402kts
23-Sep-22 18:06 43.413730 -115.686792 116 23718ft 415kts
23-Sep-22 18:07 43.359532 -115.545135 116 25882ft 424kts
23-Sep-22 18:08 43.303836 -115.400234 115 27966ft 433kts
23-Sep-22 18:09 43.272963 -115.241136 98 29930ft 435kts
23-Sep-22 18:10 43.249684 -115.075912 98 31338ft 447kts
23-Sep-22 18:11 43.225051 -114.906559 99 32590ft 459kts
23-Sep-22 18:12 43.199766 -114.735238 99 34124ft 460kts
23-Sep-22 18:13 43.174034 -114.562653 99 35245ft 464kts
23-Sep-22 18:14 43.147819 -114.388697 100 36271ft 468kts
23-Sep-22 18:15 43.121198 -114.213966 100 37255ft 473kts
23-Sep-22 18:16 43.093952 -114.037082 101 38195ft 477kts
23-Sep-22 18:17 43.068488 -113.873477 101 38966ft 480kts
23-Sep-22 18:18 43.050620 -113.759623 101 39143ft 483kts
23-Sep-22 18:19 43.022294 -113.580751 101 39151ft 482kts
23-Sep-22 18:20 42.993622 -113.401608 101 39155ft 483kts
23-Sep-22 18:21 42.964664 -113.222585 101 39165ft 483kts
23-Sep-22 18:22 42.935451 -113.043864 102 39176ft 485kts
23-Sep-22 18:23 42.905784 -112.864235 102 39220ft 486kts
23-Sep-22 18:24 42.875776 -112.684298 102 39244ft 487kts
23-Sep-22 18:25 42.826260 -112.513113 114 39248ft 489kts
23-Sep-22 18:26 42.770941 -112.343700 114 39219ft 491kts
23-Sep-22 18:27 42.715588 -112.173335 114 39185ft 493kts
23-Sep-22 18:28 42.659806 -112.002706 115 39197ft 495kts
23-Sep-22 18:29 42.603750 -111.832352 115 39189ft 496kts
23-Sep-22 18:30 42.547119 -111.661322 115 39220ft 497kts
23-Sep-22 18:31 42.490064 -111.490098 116 39214ft 498kts
23-Sep-22 18:32 42.432801 -111.319336 116 39213ft 500kts
23-Sep-22 18:33 42.374880 -111.147695 117 39227ft 503kts
23-Sep-22 18:34 42.316495 -110.975733 117 39132ft 504kts
23-Sep-22 18:35 42.257552 -110.803224 117 39075ft 508kts
23-Sep-22 18:36 42.198247 -110.630733 117 39209ft 508kts
23-Sep-22 18:37 42.138541 -110.458175 117 39230ft 508kts
23-Sep-22 18:38 42.078357 -110.285264 118 39221ft 509kts
23-Sep-22 18:39 42.018222 -110.113579 118 39186ft 509kts
23-Sep-22 18:40 41.957517 -109.941345 118 39171ft 510kts
23-Sep-22 18:41 41.896463 -109.769175 118 39176ft 511kts
23-Sep-22 18:42 41.835324 -109.597809 119 39173ft 511kts
23-Sep-22 18:43 41.773559 -109.425751 119 39191ft 513kts
23-Sep-22 18:44 41.711459 -109.253777 119 39263ft 513kts
23-Sep-22 18:45 41.649241 -109.082514 119 39312ft 513kts
23-Sep-22 18:46 41.586382 -108.910555 120 39297ft 515kts
23-Sep-22 18:47 41.523110 -108.738478 120 39229ft 516kts
23-Sep-22 18:48 41.459533 -108.566594 120 39173ft 518kts
23-Sep-22 18:49 41.395453 -108.394319 120 39168ft 519kts
23-Sep-22 18:51 41.342878 -108.214386 109 39167ft 524kts
23-Sep-22 18:52 41.299568 -108.029320 110 39164ft 524kts
23-Sep-22 18:53 41.254152 -107.845824 110 39168ft 524kts
23-Sep-22 18:54 41.208376 -107.662098 111 39264ft 524kts
23-Sep-22 18:55 41.162196 -107.478087 111 39326ft 524kts
23-Sep-22 18:56 41.116003 -107.295302 111 39316ft 525kts
23-Sep-22 18:57 41.069223 -107.112015 111 39233ft 521kts
23-Sep-22 18:58 41.024531 -106.937600 112 38296ft 495kts
23-Sep-22 18:59 40.978433 -106.759670 112 35112ft 524kts
23-Sep-22 19:00 40.931615 -106.579622 112 33456ft 507kts
23-Sep-22 19:01 40.886289 -106.406846 112 31903ft 487kts
23-Sep-22 19:02 40.842310 -106.241512 114 30427ft 469kts
23-Sep-22 19:03 40.788087 -106.090057 118 29060ft 445kts
23-Sep-22 19:04 40.736272 -105.944804 117 27569ft 431kts
23-Sep-22 19:05 40.686092 -105.804802 117 27149ft 424kts
23-Sep-22 19:06 40.635853 -105.665263 117 26159ft 413kts
23-Sep-22 19:07 40.586433 -105.531905 118 23764ft 397kts
23-Sep-22 19:08 40.537432 -105.404847 118 21302ft 380kts
23-Sep-22 19:09 40.493116 -105.281492 112 19520ft 367kts
23-Sep-22 19:10 40.453556 -105.160430 107 18224ft 357kts
23-Sep-22 19:11 40.425248 -105.037469 106 17032ft 342kts
23-Sep-22 19:12 40.399110 -104.928678 107 16238ft 297kts
23-Sep-22 19:13 40.374289 -104.824781 107 13764ft 291kts
23-Sep-22 19:14 40.345745 -104.738470 148 12995ft 236kts
23-Sep-22 19:15 40.293149 -104.692887 161 13138ft 227kts
23-Sep-22 19:16 40.231134 -104.692079 184 12408ft 237kts
23-Sep-22 19:17 40.161721 -104.692980 183 10238ft 225kts
23-Sep-22 19:18 40.105771 -104.693622 184 9234ft 175kts
23-Sep-22 19:19 40.062095 -104.694159 184 8429ft 151kts
23-Sep-22 19:20 40.020484 -104.694650 183 7697ft 151kts
23-Sep-22 19:21 39.979471 -104.695120 183 6979ft 145kts
23-Sep-22 19:22 39.939386 -104.695584 182 6257ft 141kts
23-Sep-22 19:23 39.901981 -104.696068 177 5527ft 130kts
23-Sep-22 19:24 39.877422 -104.695773 159 5362ft 3kts
23-Sep-22 19:25 39.876253 -104.695001 150 5364ft 0kts
23-Sep-22 19:26 39.875462 -104.694423 148 5362ft 16kts
23-Sep-22 19:27 39.875056 -104.687989 88 5365ft 18kts
23-Sep-22 19:28 39.873647 -104.683775 180 5363ft 13kts
23-Sep-22 19:29 39.870152 -104.683798 180 5362ft 11kts
23-Sep-22 19:30 39.865933 -104.683851 179 5363ft 16kts
23-Sep-22 19:31 39.861921 -104.683891 171 5363ft 9kts
23-Sep-22 19:32 39.861413 -104.680168 88 5365ft 16kts
23-Sep-22 19:33 39.862018 -104.676056 36 5363ft 6kts
23-Sep-22 19:34 39.862484 -104.675766 25 5362ft 0kts

Navigation Log

Ident Type
Flight plan parsing failed, navigation log unavailable